Flight Track Log - Related Links

Times and Time Zones

All times are in EDT time to prevent confusion due to time zone crossing. See the DAL3796 flight status page for this flight to view local times or setup timezone preferences in your user account.


Time Position Orientation Groundspeed Altitude Reporting Facility
EDT Latitude Longitude Course Direction KTS MPH feet Rate Location/Type
Sat 03:19:16 PM 44.7828 -89.6119 109° East 163 188 2,600  Level Minneapolis Center
Sat 03:20:17 PM 44.7739 -89.5367 99° East 183 211 4,700 2,098 Climbing Minneapolis Center
Sat 03:21:00 PM 44.7208 -89.2914 107° East  Level FlightAware Approximate
Sat 03:21:19 PM 44.7578 -89.4400 103° East 241 277 6,900  Level Minneapolis Center
Sat 03:22:00 PM 44.6946 -89.1691 107° East  Level FlightAware Approximate
Sat 03:22:21 PM 44.7425 -89.3417 102° East 268 308 9,200  Level Minneapolis Center
Sat 03:23:00 PM 44.6833 -89.0438 90° East  Level FlightAware Approximate
Sat 03:23:23 PM 44.7244 -89.2233 102° East 292 336 10,900  Level Minneapolis Center
Sat 03:24:00 PM 44.6596 -88.9218 109° East  Level FlightAware Approximate
Sat 03:24:24 PM 44.7028 -89.0858 102° East 343 395 12,600  Level Minneapolis Center
Sat 03:25:26 PM 44.6825 -88.9706 104° East 341 392 14,300 1,790 Climbing Minneapolis Center
Sat 03:26:28 PM 44.6572 -88.8144 103° East 350 403 16,300 1,548 Climbing Minneapolis Center
Sat 03:27:30 PM 44.6344 -88.6758 103° East 361 415 17,500 1,258 Climbing Minneapolis Center
Sat 03:28:32 PM 44.6117 -88.5333 103° East 371 427 18,900 1,220 Climbing Minneapolis Center
Sat 03:29:33 PM 44.5883 -88.3883 103° East 378 435 20,000 1,122 Climbing Minneapolis Center
Sat 03:30:35 PM 44.5633 -88.2414 103° East 384 442 21,200 1,113 Climbing Minneapolis Center
Sat 03:31:37 PM 44.5119 -88.1081 118° Southeast 394 453 22,300 1,065 Climbing Minneapolis Center
Sat 03:32:39 PM 44.4375 -87.9656 126° Southeast 389 448 23,400 1,016 Climbing Minneapolis Center
Sat 03:33:41 PM 44.3728 -87.8389 126° Southeast 396 456 24,400 878 Climbing Minneapolis Center
Sat 03:34:42 PM 44.3072 -87.7114 126° Southeast 400 460 25,200 732 Climbing Minneapolis Center
Sat 03:35:44 PM 44.2408 -87.5833 126° Southeast 405 466 25,900 677 Climbing Minneapolis Center
Sat 03:36:46 PM 44.1731 -87.4556 126° Southeast 408 470 26,600 677 Climbing Minneapolis Center
Sat 03:37:48 PM 44.1056 -87.3267 126° Southeast 410 472 27,300 585 Climbing Minneapolis Center
Sat 03:38:49 PM 44.0375 -87.1978 126° Southeast 413 475 27,800 444 Climbing Minneapolis Center
Sat 03:40:03 PM 43.9675 -87.0661 126° Southeast 421 484 28,300 529 Climbing Minneapolis Center
Sat 03:41:05 PM 43.8697 -86.8808 126° Southeast 425 489 29,000 339 Climbing Minneapolis Center
Sat 03:42:07 PM 43.7986 -86.7478 126° Southeast 428 493 29,000  Level Minneapolis Center
Sat 03:43:09 PM 43.7269 -86.6169 127° Southeast 429 494 29,000  Level Minneapolis Center
Sat 03:44:11 PM 43.6606 -86.4922 126° Southeast 413 475 29,000  Level Minneapolis Center
Sat 03:45:12 PM 43.5947 -86.3697 127° Southeast 400 460 29,000  Level Minneapolis Center
Sat 03:46:14 PM 43.5306 -86.2506 127° Southeast 390 449 29,000  Level Minneapolis Center
Sat 03:47:16 PM 43.4669 -86.1333 127° Southeast 385 443 29,000  Level Minneapolis Center
Sat 03:48:29 PM 43.4028 -86.0172 127° Southeast 381 438 29,000 -533 Level Minneapolis Center
Sat 03:49:31 PM 43.3547 -85.8178 108° East 394 453 27,800 -1,161 Descending Minneapolis Center
Sat 03:50:33 PM 43.3286 -85.6703 104° East 396 456 26,600 -1,161 Descending Minneapolis Center
Sat 03:51:35 PM 43.3028 -85.5272 104° East 389 448 25,400 -1,171 Descending Minneapolis Center
Sat 03:52:36 PM 43.2783 -85.3900 104° East 376 433 24,200 -1,091 Descending Minneapolis Center
Sat 03:53:47 PM 43.2489 -85.2311 104° East 360 414 23,000 -545 Descending Chicago Center
Sat 03:54:48 PM 43.2247 -85.1006 104° East 354 407 23,000  Level Chicago Center
Sat 03:55:50 PM 43.2017 -84.9703 104° East 352 405 23,000 -242 Level Chicago Center
Sat 03:56:52 PM 43.1769 -84.8408 105° East 352 405 22,500 -878 Descending Chicago Center
Sat 03:57:53 PM 43.1517 -84.7028 104° East 369 425 21,200 -1,220 Descending Chicago Center
Sat 03:58:55 PM 43.1275 -84.5742 104° East 353 406 20,000 -1,161 Descending Chicago Center
Sat 03:59:57 PM 43.0933 -84.4544 111° Southeast 342 394 18,800 -1,355 Descending Chicago Center
Sat 04:00:59 PM 43.0456 -84.3203 116° Southeast 330 380 17,200 -1,415 Descending Chicago Center
Sat 04:02:00 PM 43.0067 -84.2078 115° Southeast 328 377 15,900 -1,220 Descending Chicago Center
Sat 04:02:57 PM 42.9669 -84.1044 118° Southeast 324 373 14,800 -1,231 Descending Cleveland Center
Sat 04:03:57 PM 42.9286 -83.9972 116° Southeast 319 367 13,500 -1,250 Descending Cleveland Center
Sat 04:04:57 PM 42.8919 -83.8933 116° Southeast 314 361 12,300 -750 Descending Cleveland Center
Sat 04:05:57 PM 42.8553 -83.7894 116° Southeast 314 361 12,000 -200 Descending Cleveland Center
Sat 04:06:57 PM 42.7992 -83.7100 134° Southeast 292 336 11,900 -600 Descending Cleveland Center
Sat 04:07:57 PM 42.7211 -83.6667 158° South 292 336 10,800 -1,328 Descending Cleveland Center
Sat 04:09:08 PM 42.6328 -83.6172 158° South 291 335 9,000 -1,545 Descending Cleveland Center
Sat 04:10:09 PM 42.5806 -83.5469 135° Southeast 263 303 7,400 -1,596 Descending Cleveland Center
Sat 04:10:57 PM 42.5614 -83.4728 109° East 254 292 6,100 -778 Descending Cleveland Center
Sat 04:11:57 PM 42.5492 -83.3847 101° East 229 264 6,000 -462 Descending Cleveland Center
Sat 04:13:07 PM 42.5642 -83.2725 80° East 268 308 5,100 -916 Descending Cleveland Center
Sat 04:14:08 PM 42.5350 -83.1839 114° Southeast 238 274 4,000 -541 Descending Cleveland Center
Sat 04:15:09 PM 42.4747 -83.1817 178° South 218 251 4,000  Level Cleveland Center
Sat 04:16:22 PM 42.4153 -83.2269 209° Southwest 195 224 4,000 -49 Level Cleveland Center
Sat 04:17:11 PM 42.3769 -83.2561 209° Southwest 191 220 3,900 -122 Descending Cleveland Center

Login

Don't have an account? Register now (free) for customized features, flight alerts, and more!